createdAt,value
2022-11-28T00:01:27.582Z,101445.50
2022-11-28T00:03:55.288Z,101370.00
2022-11-28T00:06:23.668Z,101446.91
2022-11-28T00:08:51.721Z,101445.84
2022-11-28T00:11:19.524Z,101438.44
2022-11-28T00:13:47.383Z,101442.56
2022-11-28T00:16:24.190Z,101447.78
2022-11-28T00:18:53.376Z,101444.50
2022-11-28T00:21:21.492Z,101450.53
2022-11-28T00:23:49.077Z,101444.69
2022-11-28T00:26:23.720Z,101438.78
2022-11-28T00:28:51.551Z,101310.22
2022-11-28T00:31:25.674Z,101223.88
2022-11-28T00:33:54.337Z,101214.03
2022-11-28T00:36:22.952Z,101407.09
2022-11-28T00:38:51.903Z,101392.09
2022-11-28T00:41:28.837Z,101371.41
2022-11-28T00:43:57.650Z,101434.25
2022-11-28T00:46:25.727Z,101441.34
2022-11-28T00:48:53.922Z,101438.25
2022-11-28T00:51:27.854Z,101439.13
2022-11-28T00:53:57.687Z,101435.00
2022-11-28T00:56:28.330Z,101433.28
2022-11-28T00:58:56.520Z,101446.19
2022-11-28T01:01:30.482Z,101429.44
2022-11-28T01:04:00.954Z,101438.44
2022-11-28T01:06:31.619Z,101437.56
2022-11-28T01:09:02.290Z,101425.38
2022-11-28T01:11:30.271Z,101409.16
2022-11-28T01:14:00.388Z,101443.34
2022-11-28T01:16:29.328Z,101318.16
2022-11-28T01:18:57.829Z,101444.69
2022-11-28T01:21:25.743Z,101368.84
2022-11-28T01:23:53.869Z,101458.13
2022-11-28T01:26:26.660Z,101452.31
2022-11-28T01:28:54.673Z,101452.19
2022-11-28T01:31:25.020Z,101450.41
2022-11-28T01:33:52.948Z,101461.22
2022-11-28T01:36:22.042Z,101441.38
2022-11-28T01:38:50.815Z,101453.56
2022-11-28T01:41:22.195Z,101437.72
2022-11-28T01:44:30.072Z,101417.47
2022-11-28T01:46:57.513Z,101442.78
2022-11-28T01:49:32.168Z,101437.47
2022-11-28T01:52:12.300Z,101438.97
2022-11-28T01:54:44.548Z,101437.19
2022-11-28T01:57:17.293Z,101447.34
2022-11-28T02:00:06.907Z,101433.34
2022-11-28T02:02:48.027Z,101435.47
2022-11-28T02:05:21.513Z,101445.09
2022-11-28T02:07:49.297Z,101448.41
2022-11-28T02:10:33.028Z,101450.63
2022-11-28T02:13:25.154Z,101454.38
2022-11-28T02:16:10.736Z,101325.94
2022-11-28T02:18:55.339Z,101455.75
2022-11-28T02:21:28.991Z,101463.13
2022-11-28T02:24:09.160Z,101473.38
2022-11-28T02:26:48.733Z,101472.03
2022-11-28T02:29:57.288Z,101477.50
2022-11-28T02:33:04.151Z,101480.19
2022-11-28T02:35:50.064Z,101488.59
2022-11-28T02:38:17.607Z,101479.91
2022-11-28T02:41:05.684Z,101474.69
2022-11-28T02:43:45.415Z,101484.97
2022-11-28T02:46:25.411Z,101491.63
2022-11-28T02:48:57.687Z,101493.59
2022-11-28T02:51:38.256Z,101489.84
2022-11-28T02:54:08.378Z,101492.72
2022-11-28T02:56:36.366Z,101494.34
2022-11-28T02:59:04.395Z,101498.31
2022-11-28T03:01:37.357Z,101509.44
2022-11-28T03:04:31.994Z,101494.53
2022-11-28T03:07:09.199Z,101479.41
2022-11-28T03:09:56.253Z,101500.25
2022-11-28T03:12:47.053Z,101505.38
2022-11-28T03:15:20.430Z,101515.78
2022-11-28T03:18:11.182Z,101505.13
2022-11-28T03:20:44.656Z,101509.34
2022-11-28T03:23:23.714Z,101498.91
2022-11-28T03:26:09.872Z,101516.97
2022-11-28T03:29:00.774Z,101524.50
2022-11-28T03:31:36.833Z,101510.69
2022-11-28T03:34:08.789Z,101503.59
2022-11-28T03:36:48.920Z,101455.91
2022-11-28T03:39:20.691Z,101512.72
2022-11-28T03:42:01.000Z,101518.09
2022-11-28T03:44:33.513Z,101518.97
2022-11-28T03:47:02.487Z,101507.41
2022-11-28T03:49:35.815Z,101519.72
2022-11-28T03:52:06.838Z,101435.72
2022-11-28T03:54:36.696Z,101517.00
2022-11-28T03:57:40.038Z,101527.88
2022-11-28T04:00:10.922Z,101530.00
2022-11-28T04:03:09.465Z,101525.59
2022-11-28T04:05:47.003Z,101532.47
2022-11-28T04:08:26.574Z,101522.91
2022-11-28T04:11:15.334Z,101522.88
2022-11-28T04:13:57.936Z,101526.38
2022-11-28T04:16:35.382Z,101527.56
2022-11-28T04:19:28.440Z,101523.47
2022-11-28T04:22:12.542Z,101535.78
2022-11-28T04:24:54.696Z,101537.16
2022-11-28T04:27:32.352Z,101525.72
2022-11-28T04:30:03.152Z,101538.78
2022-11-28T04:32:36.760Z,101345.81
2022-11-28T04:35:09.421Z,101429.66
2022-11-28T04:37:39.734Z,101524.41
2022-11-28T04:40:10.455Z,101534.34
2022-11-28T04:42:42.712Z,101527.56
2022-11-28T04:45:16.781Z,101523.34
2022-11-28T04:47:46.452Z,101527.81
2022-11-28T04:50:14.537Z,101536.06
2022-11-28T04:52:50.935Z,101546.72
2022-11-28T04:55:40.936Z,101422.38
2022-11-28T04:58:30.075Z,101556.00
2022-11-28T05:00:59.092Z,101555.06
2022-11-28T05:03:31.290Z,101471.16
2022-11-28T05:05:58.890Z,101526.88
2022-11-28T05:08:26.203Z,101553.63
2022-11-28T05:10:54.371Z,101396.25
2022-11-28T05:13:21.859Z,101567.03
2022-11-28T05:15:49.096Z,101562.81
2022-11-28T05:18:16.995Z,101498.09
2022-11-28T05:20:44.799Z,101577.25
2022-11-28T05:23:12.114Z,101530.41
2022-11-28T05:25:40.571Z,101562.25
2022-11-28T05:28:09.080Z,101497.81
2022-11-28T05:30:36.328Z,101588.88
2022-11-28T05:33:04.244Z,101599.28
2022-11-28T05:35:31.961Z,101579.81
2022-11-28T05:37:59.539Z,101598.13
2022-11-28T05:40:27.441Z,101588.66
2022-11-28T05:42:54.656Z,101598.88
2022-11-28T05:45:22.314Z,101470.75
2022-11-28T05:47:50.099Z,101592.13
2022-11-28T05:50:17.646Z,101607.03
2022-11-28T05:52:45.265Z,101583.16
2022-11-28T05:55:13.385Z,101621.81
2022-11-28T05:57:41.095Z,101615.69
2022-11-28T06:00:08.908Z,101621.81
2022-11-28T06:02:39.885Z,101617.34
2022-11-28T06:05:34.825Z,101538.44
2022-11-28T06:07:57.273Z,101541.63
2022-11-28T06:10:25.068Z,101612.22
2022-11-28T06:12:52.882Z,101621.69
2022-11-28T06:15:20.747Z,101625.22
2022-11-28T06:17:48.291Z,101619.19
2022-11-28T06:20:15.812Z,101617.38
2022-11-28T06:22:43.487Z,101522.66
2022-11-28T06:25:11.187Z,101621.06
2022-11-28T06:27:38.853Z,101618.59
2022-11-28T06:30:07.533Z,101613.31
2022-11-28T06:32:35.029Z,101623.66
2022-11-28T06:35:02.593Z,101620.72
2022-11-28T06:37:30.439Z,101621.47
2022-11-28T06:39:59.290Z,101630.53
2022-11-28T06:42:27.085Z,101628.91
2022-11-28T06:44:54.953Z,101633.22
2022-11-28T06:47:22.475Z,101631.50
2022-11-28T06:49:50.080Z,101581.19
2022-11-28T06:52:17.820Z,101626.38
2022-11-28T06:54:45.410Z,101614.06
2022-11-28T06:57:12.978Z,101615.16
2022-11-28T06:59:41.248Z,101523.81
2022-11-28T07:02:11.775Z,101623.25
2022-11-28T07:04:39.741Z,101632.53
2022-11-28T07:07:07.431Z,101629.09
2022-11-28T07:09:34.869Z,101628.84
2022-11-28T07:12:02.255Z,101603.16
2022-11-28T07:14:33.457Z,101633.69
2022-11-28T07:17:01.122Z,101636.19
2022-11-28T07:19:28.597Z,101634.22
2022-11-28T07:21:56.337Z,101643.75
2022-11-28T07:24:23.570Z,101642.06
2022-11-28T07:26:50.855Z,101642.06
2022-11-28T07:29:19.845Z,101643.91
2022-11-28T07:31:47.484Z,101645.00
2022-11-28T07:34:14.900Z,101640.19
2022-11-28T07:36:42.941Z,101629.13
2022-11-28T07:39:14.000Z,101641.22
2022-11-28T07:41:41.296Z,101640.94
2022-11-28T07:44:10.493Z,101636.66
2022-11-28T07:46:39.207Z,101644.03
2022-11-28T07:49:06.883Z,101652.31
2022-11-28T07:51:34.629Z,101638.91
2022-11-28T07:54:03.037Z,101653.06
2022-11-28T07:57:10.330Z,101658.13
2022-11-28T07:59:21.970Z,101638.47
2022-11-28T08:01:49.515Z,101659.41
2022-11-28T08:04:17.142Z,101639.06
2022-11-28T08:06:44.875Z,101640.28
2022-11-28T08:09:12.463Z,101649.19
2022-11-28T08:11:40.443Z,101646.81
2022-11-28T08:14:08.263Z,101666.34
2022-11-28T08:16:37.109Z,101662.19
2022-11-28T08:19:04.728Z,101680.31
2022-11-28T08:21:34.113Z,101522.13
2022-11-28T08:24:03.257Z,101667.38
2022-11-28T08:26:32.083Z,101675.97
2022-11-28T08:29:01.619Z,101670.34
2022-11-28T08:31:34.865Z,101547.41
2022-11-28T08:34:06.216Z,101679.47
2022-11-28T08:36:34.378Z,101665.34
2022-11-28T08:39:23.022Z,101686.34
2022-11-28T08:41:50.653Z,101682.94
2022-11-28T08:44:18.201Z,101609.44
2022-11-28T08:46:45.525Z,101676.28
2022-11-28T08:49:13.513Z,101694.22
2022-11-28T08:51:41.016Z,101693.59
2022-11-28T08:54:08.336Z,101584.59
2022-11-28T08:56:36.273Z,101686.78
2022-11-28T08:59:03.937Z,101679.78
2022-11-28T09:01:32.225Z,101686.59
2022-11-28T09:04:00.067Z,101688.81
2022-11-28T09:06:27.875Z,101695.56
2022-11-28T09:08:55.552Z,101694.00
2022-11-28T09:11:23.988Z,101689.66
2022-11-28T09:13:51.593Z,101677.66
2022-11-28T09:16:19.300Z,101692.50
2022-11-28T09:18:47.051Z,101554.13
2022-11-28T09:21:15.645Z,101687.88
2022-11-28T09:23:44.755Z,101688.63
2022-11-28T09:26:15.654Z,101684.56
2022-11-28T09:28:43.423Z,101624.59
2022-11-28T09:31:12.907Z,101616.91
2022-11-28T09:33:41.149Z,101696.59
2022-11-28T09:36:11.990Z,101695.91
2022-11-28T09:38:40.328Z,101692.44
2022-11-28T09:41:43.203Z,101690.66
2022-11-28T09:44:49.601Z,101681.22
2022-11-28T09:47:25.914Z,101520.41
2022-11-28T09:49:57.880Z,101691.63
2022-11-28T09:52:38.811Z,101679.91
2022-11-28T09:55:12.278Z,101694.81
2022-11-28T09:57:46.003Z,101690.47
2022-11-28T10:00:32.690Z,101689.44
2022-11-28T10:03:00.306Z,101684.34
2022-11-28T10:06:15.350Z,101690.19
2022-11-28T10:09:01.838Z,101708.66
2022-11-28T10:11:59.383Z,101697.16
2022-11-28T10:15:00.814Z,101689.66
2022-11-28T10:17:36.028Z,101685.34
2022-11-28T10:20:11.282Z,101688.06
2022-11-28T10:22:54.147Z,101683.84
2022-11-28T10:25:40.922Z,101680.66
2022-11-28T10:28:14.834Z,101679.13
2022-11-28T10:30:49.076Z,101676.91
2022-11-28T10:33:46.629Z,101684.66
2022-11-28T10:36:24.046Z,101602.44
2022-11-28T10:38:51.441Z,101687.94
2022-11-28T10:41:32.399Z,101688.06
2022-11-28T10:44:24.765Z,101634.97
2022-11-28T10:47:06.953Z,101682.28
2022-11-28T10:49:46.736Z,101683.66
2022-11-28T10:52:16.833Z,101687.38
2022-11-28T10:55:08.907Z,101688.63
2022-11-28T10:57:45.356Z,101686.88
2022-11-28T11:00:18.525Z,101686.88
2022-11-28T11:02:56.803Z,101688.06
2022-11-28T11:05:31.554Z,101683.72
2022-11-28T11:08:04.167Z,101683.72
2022-11-28T11:10:49.319Z,101689.31
2022-11-28T11:13:26.125Z,101690.66
2022-11-28T11:16:00.741Z,101696.94
2022-11-28T11:18:33.107Z,101696.22
2022-11-28T11:21:36.235Z,101698.56
2022-11-28T11:24:17.744Z,101705.44
2022-11-28T11:26:48.911Z,101699.66
2022-11-28T11:29:37.798Z,101694.56
2022-11-28T11:32:16.781Z,101692.03
2022-11-28T11:34:46.186Z,101700.63
2022-11-28T11:37:37.766Z,101703.94
2022-11-28T11:40:29.900Z,101653.38
2022-11-28T11:43:00.248Z,101708.38
2022-11-28T11:45:33.805Z,101715.09
2022-11-28T11:48:02.495Z,101713.59
2022-11-28T11:50:32.058Z,101678.56
2022-11-28T11:53:07.009Z,101710.09
2022-11-28T11:55:46.210Z,101711.25
2022-11-28T11:58:19.294Z,101621.22
2022-11-28T12:00:47.603Z,101717.31
2022-11-28T12:03:35.398Z,101726.03
2022-11-28T12:06:15.354Z,101710.56
2022-11-28T12:08:51.956Z,101718.03
2022-11-28T12:11:34.803Z,101729.22
2022-11-28T12:14:30.236Z,101713.41
2022-11-28T12:16:57.970Z,101717.91
2022-11-28T12:19:28.377Z,101647.06
2022-11-28T12:22:17.463Z,101719.38
2022-11-28T12:25:04.247Z,101712.66
2022-11-28T12:27:53.353Z,101641.94
2022-11-28T12:30:21.080Z,101717.03
2022-11-28T12:33:02.915Z,101718.50
2022-11-28T12:35:36.838Z,101731.53
2022-11-28T12:38:12.041Z,101731.44
2022-11-28T12:40:42.527Z,101737.75
2022-11-28T12:43:18.888Z,101732.53
2022-11-28T12:45:55.876Z,101735.47
2022-11-28T12:48:53.069Z,101738.50
2022-11-28T12:51:28.812Z,101736.59
2022-11-28T12:54:14.817Z,101747.88
2022-11-28T12:57:04.513Z,101746.19
2022-11-28T12:59:50.750Z,101742.88
2022-11-28T13:02:24.507Z,101747.81
2022-11-28T13:05:17.955Z,101755.66
2022-11-28T13:07:58.051Z,101767.63
2022-11-28T13:10:40.539Z,101755.34
2022-11-28T13:13:17.154Z,101695.97
2022-11-28T13:16:09.993Z,101737.72
2022-11-28T13:18:44.805Z,101757.19
2022-11-28T13:21:24.815Z,101750.88
2022-11-28T13:24:02.334Z,101754.38
2022-11-28T13:27:00.633Z,101754.19
2022-11-28T13:30:12.598Z,101744.59
2022-11-28T13:32:49.989Z,101765.91
2022-11-28T13:35:19.432Z,101641.69
2022-11-28T13:40:48.170Z,101765.97
2022-11-28T13:43:28.180Z,101763.75
2022-11-28T13:45:56.596Z,101741.13
2022-11-28T13:51:33.675Z,101747.38
2022-11-28T13:54:20.199Z,101770.66
2022-11-28T13:57:15.240Z,101768.56
2022-11-28T13:59:52.657Z,101776.16
2022-11-28T14:02:33.719Z,101770.03
2022-11-28T14:05:03.026Z,101773.00
2022-11-28T14:07:33.275Z,101614.44
2022-11-28T14:10:28.492Z,101781.69
2022-11-28T14:13:02.118Z,101782.91
2022-11-28T14:15:45.414Z,101785.34
2022-11-28T14:18:55.175Z,101789.19
2022-11-28T14:21:47.354Z,101654.41
2022-11-28T14:24:17.892Z,101796.06
2022-11-28T14:26:46.246Z,101595.78
2022-11-28T14:29:24.733Z,101795.50
2022-11-28T14:32:21.579Z,101768.00
2022-11-28T14:34:47.614Z,101791.78
2022-11-28T14:37:27.412Z,101796.22
2022-11-28T14:39:58.009Z,101578.31
2022-11-28T14:42:58.310Z,101798.50
2022-11-28T14:45:42.742Z,101798.69
2022-11-28T14:48:24.172Z,101800.19
2022-11-28T14:50:59.341Z,101801.28
2022-11-28T14:53:36.279Z,101793.44
2022-11-28T14:56:16.136Z,101782.22
2022-11-28T14:58:51.400Z,101783.25
2022-11-28T15:01:57.273Z,101792.84
2022-11-28T15:04:56.621Z,101793.00
2022-11-28T15:08:00.582Z,101794.47
2022-11-28T15:10:46.652Z,101785.38
2022-11-28T15:13:32.428Z,101786.97
2022-11-28T15:16:03.127Z,101777.53
2022-11-28T15:18:31.364Z,101785.53
2022-11-28T15:21:10.833Z,101781.47
2022-11-28T15:23:38.959Z,101606.81
2022-11-28T15:26:07.066Z,101783.41
2022-11-28T15:28:36.432Z,101781.19
2022-11-28T15:31:05.899Z,101766.22
2022-11-28T15:33:34.287Z,101674.97
2022-11-28T15:36:12.479Z,101791.69
2022-11-28T15:38:42.639Z,101735.28
2022-11-28T15:41:10.654Z,101791.88
2022-11-28T15:43:42.682Z,101802.41
2022-11-28T15:46:19.635Z,101808.28
2022-11-28T15:48:51.582Z,101813.84
2022-11-28T15:51:29.150Z,101796.25
2022-11-28T15:53:57.622Z,101735.28
2022-11-28T15:56:25.077Z,101803.03
2022-11-28T15:58:53.856Z,101798.84
2022-11-28T16:01:29.386Z,101793.28
2022-11-28T16:04:17.399Z,101795.75
2022-11-28T16:06:52.539Z,101801.31
2022-11-28T16:09:20.142Z,101795.38
2022-11-28T16:11:51.946Z,101801.19
2022-11-28T16:14:29.618Z,101748.91
2022-11-28T16:17:02.998Z,101793.03
2022-11-28T16:19:34.684Z,101800.88
2022-11-28T16:22:08.499Z,101798.13
2022-11-28T16:24:48.307Z,101804.66
2022-11-28T16:27:38.952Z,101795.47
2022-11-28T16:30:35.072Z,101796.75
2022-11-28T16:33:23.831Z,101814.97
2022-11-28T16:35:52.088Z,101712.84
2022-11-28T16:38:23.873Z,101792.94
2022-11-28T16:40:52.546Z,101690.19
2022-11-28T16:43:40.455Z,101797.22
2022-11-28T16:46:18.505Z,101587.19
2022-11-28T16:48:59.764Z,101800.19
2022-11-28T16:51:29.467Z,101674.50
2022-11-28T16:54:01.814Z,101800.75
2022-11-28T16:56:29.881Z,101795.78
2022-11-28T16:59:09.838Z,101595.66
2022-11-28T17:01:37.682Z,101814.41
2022-11-28T17:04:06.156Z,101801.63
2022-11-28T17:06:37.712Z,101694.88
2022-11-28T17:09:07.647Z,101802.84
2022-11-28T17:11:37.523Z,101801.88
2022-11-28T17:14:13.123Z,101802.84
2022-11-28T17:16:42.922Z,101780.50
2022-11-28T17:19:10.909Z,101799.88
2022-11-28T17:21:48.054Z,101789.97
2022-11-28T17:24:29.801Z,101800.50
2022-11-28T17:26:57.698Z,101807.81
2022-11-28T17:29:28.751Z,101808.31
2022-11-28T17:31:59.147Z,101669.94
2022-11-28T17:34:34.558Z,101810.75
2022-11-28T17:37:03.368Z,101810.66
2022-11-28T17:39:30.745Z,101820.00
2022-11-28T17:41:58.907Z,101797.81
2022-11-28T17:44:30.427Z,101824.88
2022-11-28T17:46:58.890Z,101842.16
2022-11-28T17:49:28.005Z,101827.75
2022-11-28T17:51:56.398Z,101833.22
2022-11-28T17:54:26.575Z,101826.25
2022-11-28T17:56:54.915Z,101830.88
2022-11-28T17:59:24.251Z,101755.31
2022-11-28T18:01:52.026Z,101821.81
2022-11-28T18:04:25.760Z,101822.28
2022-11-28T18:06:53.630Z,101814.41
2022-11-28T18:09:20.944Z,101831.75
2022-11-28T18:11:49.006Z,101818.84
2022-11-28T18:14:19.491Z,101822.53
2022-11-28T18:16:47.628Z,101824.53
2022-11-28T18:19:15.506Z,101744.25
2022-11-28T18:21:43.087Z,101828.75
2022-11-28T18:24:10.573Z,101808.16
2022-11-28T18:26:41.604Z,101825.75
2022-11-28T18:29:10.858Z,101813.34
2022-11-28T18:31:38.724Z,101673.72
2022-11-28T18:34:08.699Z,101830.44
2022-11-28T18:36:38.693Z,101824.53
2022-11-28T18:39:14.742Z,101822.63
2022-11-28T18:41:42.510Z,101835.69
2022-11-28T18:44:11.707Z,101723.84
2022-11-28T18:46:40.611Z,101724.50
2022-11-28T18:49:12.271Z,101794.84
2022-11-28T18:51:39.945Z,101832.59
2022-11-28T18:54:10.138Z,101823.81
2022-11-28T18:56:37.505Z,101824.75
2022-11-28T18:59:05.893Z,101831.72
2022-11-28T19:01:35.143Z,101826.59
2022-11-28T19:04:08.836Z,101834.34
2022-11-28T19:06:38.778Z,101834.44
2022-11-28T19:09:12.439Z,101829.66
2022-11-28T19:11:41.850Z,101840.88
2022-11-28T19:14:14.998Z,101839.69
2022-11-28T19:16:45.493Z,101826.16
2022-11-28T19:19:17.437Z,101831.56
2022-11-28T19:21:45.656Z,101851.91
2022-11-28T19:24:14.425Z,101834.78
2022-11-28T19:26:42.315Z,101730.59
2022-11-28T19:29:11.288Z,101604.09
2022-11-28T19:31:41.045Z,101734.41
2022-11-28T19:34:14.603Z,101705.84
2022-11-28T19:36:45.458Z,101812.34
2022-11-28T19:39:17.302Z,101824.75
2022-11-28T19:41:47.453Z,101830.47
2022-11-28T19:44:15.595Z,101656.50
2022-11-28T19:46:43.592Z,101641.34
2022-11-28T19:49:20.776Z,101726.56
2022-11-28T19:51:50.321Z,101839.84
2022-11-28T19:54:21.448Z,101832.00
2022-11-28T19:56:50.143Z,101843.22
2022-11-28T19:59:19.483Z,101849.13
2022-11-28T20:01:49.903Z,101754.78
2022-11-28T20:04:19.125Z,101857.47
2022-11-28T20:06:46.649Z,101844.41
2022-11-28T20:09:14.318Z,101854.97
2022-11-28T20:11:44.335Z,101854.72
2022-11-28T20:14:15.536Z,101850.28
2022-11-28T20:16:43.626Z,101740.13
2022-11-28T20:19:12.799Z,101854.72
2022-11-28T20:21:41.040Z,101842.09
2022-11-28T20:24:10.270Z,101789.47
2022-11-28T20:26:41.462Z,101848.03
2022-11-28T20:29:13.886Z,101846.28
2022-11-28T20:31:46.060Z,101758.59
2022-11-28T20:34:17.615Z,101861.13
2022-11-28T20:36:46.299Z,101865.81
2022-11-28T20:39:13.963Z,101730.03
2022-11-28T20:41:41.384Z,101739.56
2022-11-28T20:44:10.011Z,101753.38
2022-11-28T20:46:37.664Z,101872.44
2022-11-28T20:49:06.817Z,101892.84
2022-11-28T20:51:35.151Z,101881.56
2022-11-28T20:54:05.160Z,101847.09
2022-11-28T20:56:58.053Z,101875.88
2022-11-28T20:59:25.199Z,101878.66
2022-11-28T21:01:52.627Z,101885.50
2022-11-28T21:04:19.999Z,101857.84
2022-11-28T21:06:49.477Z,101758.94
2022-11-28T21:09:18.602Z,101793.38
2022-11-28T21:11:57.456Z,101885.34
2022-11-28T21:14:26.676Z,101863.00
2022-11-28T21:16:54.128Z,101891.81
2022-11-28T21:19:21.903Z,101887.88
2022-11-28T21:21:49.835Z,101719.69
2022-11-28T21:24:17.446Z,101757.56
2022-11-28T21:26:51.334Z,101866.06
2022-11-28T21:29:21.871Z,101891.97
2022-11-28T21:31:49.791Z,101883.44
2022-11-28T21:34:19.235Z,101886.47
2022-11-28T21:36:47.331Z,101800.38
2022-11-28T21:39:20.403Z,101855.00
2022-11-28T21:41:48.356Z,101897.44
2022-11-28T21:44:16.777Z,101898.09
2022-11-28T21:46:45.392Z,101908.44
2022-11-28T21:49:13.871Z,101845.78
2022-11-28T21:51:41.655Z,101658.91
2022-11-28T21:54:11.242Z,101884.13
2022-11-28T21:56:39.949Z,101886.03
2022-11-28T21:59:07.574Z,101790.38
2022-11-28T22:01:35.093Z,101888.81
2022-11-28T22:04:04.080Z,101878.81
2022-11-28T22:06:32.273Z,101854.81
2022-11-28T22:09:07.282Z,101884.97
2022-11-28T22:11:37.228Z,101770.59
2022-11-28T22:14:05.002Z,101892.72
2022-11-28T22:16:32.995Z,101875.94
2022-11-28T22:19:01.603Z,101806.59
2022-11-28T22:24:17.098Z,101888.16
2022-11-28T22:26:44.805Z,101891.41
2022-11-28T22:29:14.385Z,101852.75
2022-11-28T22:31:42.202Z,101793.34
2022-11-28T22:34:10.142Z,101915.47
2022-11-28T22:36:38.804Z,101891.31
2022-11-28T22:39:06.716Z,101883.47
2022-11-28T22:41:35.054Z,101860.94
2022-11-28T22:44:04.385Z,101872.78
2022-11-28T22:46:32.752Z,101872.16
2022-11-28T22:49:02.279Z,101901.63
2022-11-28T22:51:31.334Z,101884.78
2022-11-28T22:54:01.669Z,101884.00
2022-11-28T22:56:32.538Z,101887.38
2022-11-28T22:59:00.927Z,101892.78
2022-11-28T23:01:31.301Z,101726.34
2022-11-28T23:03:59.970Z,101785.19
2022-11-28T23:06:31.240Z,101902.53
2022-11-28T23:09:00.439Z,101879.94
2022-11-28T23:11:32.909Z,101892.00
2022-11-28T23:14:02.363Z,101889.06
2022-11-28T23:16:38.659Z,101887.06
2022-11-28T23:19:11.418Z,101896.44
2022-11-28T23:21:40.997Z,101787.97
2022-11-28T23:24:15.939Z,101898.81
2022-11-28T23:26:45.063Z,101699.81
2022-11-28T23:29:14.166Z,101895.84
2022-11-28T23:31:43.468Z,101783.13
2022-11-28T23:34:11.917Z,101885.56
2022-11-28T23:36:43.020Z,101891.13
2022-11-28T23:39:17.303Z,101884.78
2022-11-28T23:41:45.608Z,101894.94
2022-11-28T23:44:14.005Z,101869.06
2022-11-28T23:46:42.318Z,101890.75
2022-11-28T23:49:10.370Z,101896.16
2022-11-28T23:51:40.138Z,101889.59
2022-11-28T23:54:08.766Z,101907.66
2022-11-28T23:56:37.904Z,101894.41
2022-11-28T23:59:07.712Z,101875.31
